createdAt,value
2022-08-18T00:02:30.361Z,19.25
2022-08-18T00:05:14.834Z,18.25
2022-08-18T00:07:59.359Z,20.92
2022-08-18T00:10:28.472Z,20.00
2022-08-18T00:13:01.289Z,18.92
2022-08-18T00:15:29.708Z,18.98
2022-08-18T00:18:22.763Z,20.55
2022-08-18T00:21:38.858Z,19.88
2022-08-18T00:24:06.416Z,20.33
2022-08-18T00:26:37.100Z,19.00
2022-08-18T00:29:15.741Z,19.88
2022-08-18T00:31:43.042Z,19.60
2022-08-18T00:34:16.214Z,24.23
2022-08-18T00:36:58.332Z,21.88
2022-08-18T00:39:27.435Z,19.98
2022-08-18T00:42:30.812Z,20.42
2022-08-18T00:45:25.587Z,22.05
2022-08-18T00:48:06.080Z,21.90
2022-08-18T00:50:54.593Z,18.75
2022-08-18T00:53:44.418Z,20.55
2022-08-18T00:56:30.807Z,19.25
2022-08-18T00:59:09.090Z,21.02
2022-08-18T01:01:38.328Z,20.25
2022-08-18T01:04:11.781Z,21.33
2022-08-18T01:07:00.906Z,22.40
2022-08-18T01:09:29.992Z,22.88
2022-08-18T01:11:57.233Z,21.63
2022-08-18T01:14:26.886Z,20.90
2022-08-18T01:17:32.193Z,22.50
2022-08-18T01:20:39.200Z,21.85
2022-08-18T01:23:23.841Z,22.70
2022-08-18T01:26:02.793Z,23.70
2022-08-18T01:28:54.392Z,22.40
2022-08-18T01:31:54.544Z,21.42
2022-08-18T01:34:40.839Z,23.92
2022-08-18T01:37:18.393Z,22.75
2022-08-18T01:41:24.376Z,22.10
2022-08-18T01:42:52.499Z,21.85
2022-08-18T01:45:43.833Z,21.30
2022-08-18T01:48:37.595Z,22.38
2022-08-18T01:51:07.379Z,22.40
2022-08-18T01:53:43.761Z,22.70
2022-08-18T01:56:23.117Z,21.80
2022-08-18T01:58:51.219Z,22.33
2022-08-18T02:01:36.688Z,22.25
2022-08-18T02:04:33.946Z,21.50
2022-08-18T02:07:17.463Z,22.65
2022-08-18T02:09:59.985Z,23.20
2022-08-18T02:12:33.256Z,23.20
2022-08-18T02:15:08.366Z,23.40
2022-08-18T02:17:39.372Z,22.77
2022-08-18T02:20:18.751Z,23.27
2022-08-18T02:22:49.563Z,25.90
2022-08-18T02:25:24.929Z,27.15
2022-08-18T02:27:58.851Z,25.33
2022-08-18T02:30:27.156Z,26.33
2022-08-18T02:32:58.227Z,26.77
2022-08-18T02:35:25.770Z,27.52
2022-08-18T02:38:07.640Z,27.40
2022-08-18T02:40:36.103Z,30.05
2022-08-18T02:43:09.508Z,28.15
2022-08-18T02:45:42.628Z,26.23
2022-08-18T02:48:32.033Z,25.58
2022-08-18T02:51:15.325Z,25.77
2022-08-18T02:53:45.829Z,24.92
2022-08-18T02:56:40.193Z,26.20
2022-08-18T02:59:10.503Z,28.40
2022-08-18T03:01:46.878Z,29.65
2022-08-18T03:04:38.717Z,27.40
2022-08-18T03:07:08.526Z,25.90
2022-08-18T03:09:42.828Z,25.13
2022-08-18T03:12:10.642Z,23.90
2022-08-18T03:14:40.437Z,24.05
2022-08-18T03:17:09.425Z,23.35
2022-08-18T03:19:37.209Z,24.27
2022-08-18T03:22:16.075Z,24.55
2022-08-18T03:25:16.276Z,23.95
2022-08-18T03:27:43.283Z,25.23
2022-08-18T03:30:11.946Z,23.35
2022-08-18T03:32:41.071Z,23.75
2022-08-18T03:37:46.115Z,24.25
2022-08-18T03:40:25.367Z,24.55
2022-08-18T03:42:52.481Z,25.00
2022-08-18T03:45:32.349Z,23.58
2022-08-18T03:48:28.247Z,24.00
2022-08-18T03:51:27.001Z,25.95
2022-08-18T03:54:02.263Z,27.25
2022-08-18T03:56:41.419Z,26.58
2022-08-18T03:59:23.942Z,26.75
2022-08-18T04:01:59.565Z,23.42
2022-08-18T04:04:36.060Z,23.65
2022-08-18T04:07:17.622Z,23.15
2022-08-18T04:09:50.880Z,24.63
2022-08-18T04:12:41.300Z,25.63
2022-08-18T04:15:09.569Z,25.23
2022-08-18T04:17:56.290Z,24.83
2022-08-18T04:20:38.941Z,26.38
2022-08-18T04:23:43.643Z,26.90
2022-08-18T04:26:24.468Z,27.08
2022-08-18T04:28:51.816Z,27.80
2022-08-18T04:31:25.030Z,27.58
2022-08-18T04:33:53.306Z,27.80
2022-08-18T04:36:57.454Z,28.33
2022-08-18T04:39:26.877Z,28.02
2022-08-18T04:42:01.751Z,27.38
2022-08-18T04:44:29.893Z,32.45
2022-08-18T04:47:01.064Z,36.72
2022-08-18T04:49:32.334Z,37.75
2022-08-18T04:52:40.563Z,37.35
2022-08-18T04:55:30.683Z,35.20
2022-08-18T04:58:01.106Z,34.80
2022-08-18T05:00:28.162Z,35.17
2022-08-18T05:03:51.534Z,36.53
2022-08-18T05:06:30.970Z,36.47
2022-08-18T05:09:07.568Z,34.35
2022-08-18T05:11:58.106Z,34.35
2022-08-18T05:14:25.546Z,35.60
2022-08-18T05:16:58.941Z,35.45
2022-08-18T05:19:36.045Z,34.90
2022-08-18T05:22:27.848Z,36.72
2022-08-18T05:27:56.464Z,38.00
2022-08-18T05:30:24.750Z,38.13
2022-08-18T05:33:16.093Z,37.75
2022-08-18T05:36:03.675Z,36.25
2022-08-18T05:38:59.921Z,37.50
2022-08-18T05:41:34.156Z,38.08
2022-08-18T05:44:07.875Z,38.60
2022-08-18T05:49:21.252Z,50.45
2022-08-18T05:52:03.466Z,47.00
2022-08-18T05:55:01.628Z,51.20
2022-08-18T05:57:38.514Z,49.13
2022-08-18T06:00:09.254Z,43.90
2022-08-18T06:02:51.535Z,39.67
2022-08-18T06:05:28.956Z,34.78
2022-08-18T06:08:17.165Z,34.85
2022-08-18T06:10:52.235Z,32.60
2022-08-18T06:14:01.744Z,31.10
2022-08-18T06:17:13.323Z,30.80
2022-08-18T06:20:35.133Z,28.95
2022-08-18T06:23:41.825Z,29.35
2022-08-18T06:26:59.664Z,29.98
2022-08-18T06:30:13.200Z,28.98
2022-08-18T06:33:04.852Z,29.25
2022-08-18T06:35:40.871Z,26.92
2022-08-18T06:38:46.166Z,27.10
2022-08-18T06:41:42.874Z,27.45
2022-08-18T06:44:45.856Z,26.38
2022-08-18T06:47:32.854Z,25.15
2022-08-18T06:50:44.803Z,24.92
2022-08-18T06:53:26.787Z,25.77
2022-08-18T06:55:57.225Z,25.50
2022-08-18T06:58:30.923Z,26.23
2022-08-18T07:04:08.191Z,25.35
2022-08-18T07:06:39.401Z,25.60
2022-08-18T07:09:24.408Z,24.67
2022-08-18T07:12:09.399Z,24.73
2022-08-18T07:14:50.851Z,24.10
2022-08-18T07:17:53.139Z,24.60
2022-08-18T07:20:26.060Z,24.42
2022-08-18T07:23:08.107Z,23.37
2022-08-18T07:25:45.790Z,23.60
2022-08-18T07:28:50.181Z,23.30
2022-08-18T07:34:12.729Z,22.15
2022-08-18T07:37:01.845Z,23.00
2022-08-18T07:39:48.377Z,23.50
2022-08-18T07:43:02.108Z,21.63
2022-08-18T07:45:38.661Z,22.33
2022-08-18T07:51:20.021Z,18.67
2022-08-18T07:54:05.361Z,17.27
2022-08-18T07:56:56.285Z,17.10
2022-08-18T07:59:33.422Z,18.30
2022-08-18T08:02:18.872Z,18.30
2022-08-18T08:05:08.807Z,17.05
2022-08-18T08:07:44.135Z,16.58
2022-08-18T08:10:39.969Z,16.52
2022-08-18T08:13:51.753Z,16.40
2022-08-18T08:16:46.566Z,17.30
2022-08-18T08:19:49.393Z,17.60
2022-08-18T08:22:29.766Z,19.08
2022-08-18T08:25:46.450Z,19.17
2022-08-18T08:28:43.281Z,20.13
2022-08-18T08:31:54.818Z,20.10
2022-08-18T08:34:54.789Z,20.65
2022-08-18T08:37:33.892Z,19.95
2022-08-18T08:40:03.082Z,18.92
2022-08-18T08:42:45.978Z,19.42
2022-08-18T08:45:22.252Z,19.23
2022-08-18T08:48:11.678Z,18.48
2022-08-18T08:51:33.763Z,17.67
2022-08-18T08:54:23.855Z,18.48
2022-08-18T08:57:01.778Z,17.70
2022-08-18T08:59:29.946Z,17.55
2022-08-18T09:02:48.923Z,18.35
2022-08-18T09:05:45.388Z,18.00
2022-08-18T09:08:41.631Z,16.15
2022-08-18T09:11:27.134Z,18.48
2022-08-18T09:14:07.330Z,18.15
2022-08-18T09:16:59.750Z,17.27
2022-08-18T09:20:09.291Z,18.15
2022-08-18T09:22:52.737Z,18.30
2022-08-18T09:25:48.506Z,17.92
2022-08-18T09:28:23.923Z,17.77
2022-08-18T09:31:10.152Z,18.60
2022-08-18T09:33:46.012Z,17.20
2022-08-18T09:36:44.515Z,17.27
2022-08-18T09:39:59.073Z,17.02
2022-08-18T09:42:50.655Z,16.45
2022-08-18T09:45:33.337Z,15.82
2022-08-18T09:48:30.825Z,15.68
2022-08-18T09:51:32.930Z,15.25
2022-08-18T09:54:32.191Z,14.52
2022-08-18T09:57:19.671Z,14.38
2022-08-18T10:02:38.688Z,13.88
2022-08-18T10:05:20.314Z,13.85
2022-08-18T10:08:21.284Z,14.07
2022-08-18T10:11:40.935Z,14.48
2022-08-18T10:14:45.698Z,14.32
2022-08-18T10:20:26.187Z,13.65
2022-08-18T10:23:01.337Z,12.80
2022-08-18T10:25:48.422Z,12.90
2022-08-18T10:28:57.491Z,12.60
2022-08-18T10:31:27.313Z,11.57
2022-08-18T10:34:16.337Z,11.55
2022-08-18T10:37:19.525Z,10.75
2022-08-18T10:40:02.111Z,11.13
2022-08-18T10:42:39.243Z,10.85
2022-08-18T10:46:24.438Z,10.93
2022-08-18T10:49:21.790Z,11.63
2022-08-18T10:52:11.060Z,10.82
2022-08-18T10:55:06.259Z,11.30
2022-08-18T10:58:01.821Z,12.05
2022-08-18T11:01:01.259Z,10.75
2022-08-18T11:03:55.962Z,10.32
2022-08-18T11:06:26.316Z,10.30
2022-08-18T11:09:04.249Z,10.05
2022-08-18T11:12:02.125Z,9.95
2022-08-18T11:14:56.282Z,9.25
2022-08-18T11:18:10.402Z,9.70
2022-08-18T11:20:42.994Z,9.60
2022-08-18T11:23:17.286Z,10.10
2022-08-18T11:26:18.360Z,9.63
2022-08-18T11:28:49.871Z,10.65
2022-08-18T11:31:19.458Z,10.77
2022-08-18T11:33:53.084Z,10.05
2022-08-18T11:36:31.099Z,9.82
2022-08-18T11:39:01.356Z,9.77
2022-08-18T11:41:48.007Z,9.80
2022-08-18T11:44:25.135Z,9.68
2022-08-18T11:47:09.495Z,9.63
2022-08-18T11:50:08.965Z,9.63
2022-08-18T11:53:13.784Z,9.82
2022-08-18T11:56:03.398Z,8.85
2022-08-18T11:58:59.990Z,8.43
2022-08-18T12:01:57.147Z,9.05
2022-08-18T12:04:40.200Z,9.00
2022-08-18T12:07:51.109Z,9.32
2022-08-18T12:10:47.537Z,9.52
2022-08-18T12:16:35.366Z,9.75
2022-08-18T12:19:15.335Z,9.07
2022-08-18T12:22:11.933Z,8.77
2022-08-18T12:24:40.424Z,8.75
2022-08-18T12:27:21.277Z,9.50
2022-08-18T12:32:56.092Z,8.85
2022-08-18T12:35:30.344Z,9.55
2022-08-18T12:38:00.359Z,8.95
2022-08-18T12:40:43.463Z,9.32
2022-08-18T12:43:11.242Z,8.70
2022-08-18T12:45:41.656Z,8.38
2022-08-18T12:48:26.988Z,9.73
2022-08-18T12:50:58.415Z,9.05
2022-08-18T12:56:36.340Z,10.20
2022-08-18T12:59:07.170Z,9.55
2022-08-18T13:01:40.461Z,9.23
2022-08-18T13:04:26.950Z,8.93
2022-08-18T13:07:00.545Z,8.52
2022-08-18T13:09:52.856Z,8.80
2022-08-18T13:12:27.335Z,9.45
2022-08-18T13:14:55.448Z,9.43
2022-08-18T13:17:33.532Z,9.50
2022-08-18T13:20:09.889Z,9.00
2022-08-18T13:22:40.643Z,9.23
2022-08-18T13:25:28.858Z,9.30
2022-08-18T13:28:15.468Z,8.45
2022-08-18T13:30:46.817Z,8.52
2022-08-18T13:33:53.529Z,8.98
2022-08-18T13:36:02.006Z,8.60
2022-08-18T13:38:30.088Z,9.45
2022-08-18T13:41:06.278Z,9.20
2022-08-18T13:43:39.175Z,9.10
2022-08-18T13:46:08.213Z,9.20
2022-08-18T13:48:38.155Z,8.43
2022-08-18T13:51:11.379Z,9.27
2022-08-18T13:56:31.245Z,8.93
2022-08-18T13:58:59.034Z,8.48
2022-08-18T14:01:44.528Z,8.60
2022-08-18T14:04:15.102Z,9.07
2022-08-18T14:06:56.436Z,8.27
2022-08-18T14:09:42.481Z,9.18
2022-08-18T14:12:29.620Z,8.85
2022-08-18T14:15:00.856Z,9.20
2022-08-18T14:17:51.669Z,8.65
2022-08-18T14:20:48.148Z,8.35
2022-08-18T14:23:39.862Z,8.00
2022-08-18T14:26:45.997Z,8.60
2022-08-18T14:29:47.015Z,8.40
2022-08-18T14:32:07.759Z,8.88
2022-08-18T14:34:41.453Z,9.30
2022-08-18T14:37:43.028Z,8.83
2022-08-18T14:40:20.467Z,8.90
2022-08-18T14:42:54.497Z,8.35
2022-08-18T14:45:27.625Z,8.57
2022-08-18T14:48:06.695Z,8.23
2022-08-18T14:50:44.847Z,8.18
2022-08-18T14:53:37.174Z,7.93
2022-08-18T14:56:08.749Z,8.65
2022-08-18T14:58:37.945Z,8.40
2022-08-18T15:01:10.375Z,8.38
2022-08-18T15:03:39.812Z,8.43
2022-08-18T15:06:08.325Z,8.27
2022-08-18T15:08:49.071Z,8.10
2022-08-18T15:11:24.915Z,8.40
2022-08-18T15:13:55.146Z,8.15
2022-08-18T15:16:31.532Z,7.85
2022-08-18T15:19:59.858Z,7.38
2022-08-18T15:22:29.178Z,8.18
2022-08-18T15:25:26.320Z,8.15
2022-08-18T15:27:56.340Z,7.93
2022-08-18T15:30:26.713Z,8.27
2022-08-18T15:32:59.368Z,8.25
2022-08-18T15:35:35.714Z,7.60
2022-08-18T15:38:07.399Z,8.80
2022-08-18T15:40:41.616Z,8.65
2022-08-18T15:43:12.916Z,7.80
2022-08-18T15:45:56.473Z,9.93
2022-08-18T15:48:28.865Z,9.77
2022-08-18T15:51:11.747Z,10.10
2022-08-18T15:53:57.903Z,15.10
2022-08-18T15:56:43.339Z,10.20
2022-08-18T15:59:12.840Z,10.10
2022-08-18T16:01:43.438Z,9.57
2022-08-18T16:04:24.284Z,10.55
2022-08-18T16:06:52.526Z,10.65
2022-08-18T16:09:33.995Z,12.20
2022-08-18T16:12:50.639Z,10.45
2022-08-18T16:15:23.466Z,10.18
2022-08-18T16:20:29.670Z,10.23
2022-08-18T16:22:59.185Z,10.20
2022-08-18T16:25:28.997Z,10.30
2022-08-18T16:28:13.645Z,10.18
2022-08-18T16:30:47.466Z,9.93
2022-08-18T16:33:18.555Z,9.93
2022-08-18T16:36:25.649Z,10.30
2022-08-18T16:38:53.955Z,9.90
2022-08-18T16:41:29.636Z,10.35
2022-08-18T16:43:58.940Z,10.48
2022-08-18T16:46:27.864Z,9.77
2022-08-18T16:49:11.173Z,10.20
2022-08-18T16:51:45.002Z,10.18
2022-08-18T16:54:14.666Z,10.95
2022-08-18T16:57:10.828Z,11.18
2022-08-18T16:59:57.732Z,10.82
2022-08-18T17:02:47.111Z,10.77
2022-08-18T17:05:24.232Z,10.40
2022-08-18T17:07:52.334Z,10.50
2022-08-18T17:13:40.805Z,10.25
2022-08-18T17:16:16.911Z,10.77
2022-08-18T17:18:46.050Z,10.75
2022-08-18T17:21:50.425Z,11.35
2022-08-18T17:24:31.721Z,11.63
2022-08-18T17:27:27.121Z,11.35
2022-08-18T17:30:40.017Z,12.43
2022-08-18T17:33:16.129Z,11.63
2022-08-18T17:35:56.811Z,10.98
2022-08-18T17:38:49.713Z,11.40
2022-08-18T17:41:25.602Z,11.23
2022-08-18T17:43:56.548Z,10.40
2022-08-18T17:46:37.699Z,11.32
2022-08-18T17:49:18.170Z,10.57
2022-08-18T17:51:52.607Z,11.00
2022-08-18T17:54:46.558Z,11.40
2022-08-18T17:57:33.751Z,10.93
2022-08-18T18:00:14.191Z,10.85
2022-08-18T18:02:45.481Z,10.93
2022-08-18T18:05:16.270Z,10.98
2022-08-18T18:07:52.252Z,11.25
2022-08-18T18:10:56.491Z,11.65
2022-08-18T18:13:37.367Z,10.80
2022-08-18T18:16:26.251Z,10.93
2022-08-18T18:19:06.560Z,10.88
2022-08-18T18:21:58.947Z,10.52
2022-08-18T18:24:32.598Z,11.82
2022-08-18T18:27:22.748Z,11.48
2022-08-18T18:30:07.438Z,11.73
2022-08-18T18:32:59.438Z,12.27
2022-08-18T18:35:34.285Z,17.00
2022-08-18T18:38:23.829Z,18.40
2022-08-18T18:41:38.025Z,14.98
2022-08-18T18:44:10.335Z,12.35
2022-08-18T18:46:53.587Z,12.07
2022-08-18T18:49:42.559Z,11.20
2022-08-18T18:52:41.442Z,11.65
2022-08-18T18:55:17.641Z,11.93
2022-08-18T18:58:14.614Z,12.43
2022-08-18T19:00:59.704Z,13.20
2022-08-18T19:04:07.518Z,12.52
2022-08-18T19:06:48.658Z,12.63
2022-08-18T19:09:30.058Z,12.10
2022-08-18T19:12:43.602Z,12.50
2022-08-18T19:15:19.806Z,11.60
2022-08-18T19:18:02.423Z,12.25
2022-08-18T19:20:37.263Z,12.00
2022-08-18T19:23:06.848Z,13.20
2022-08-18T19:25:51.535Z,13.10
2022-08-18T19:28:36.997Z,12.95
2022-08-18T19:31:40.091Z,12.40
2022-08-18T19:34:19.057Z,12.80
2022-08-18T19:37:14.930Z,12.75
2022-08-18T19:40:05.796Z,12.80
2022-08-18T19:42:45.534Z,12.25
2022-08-18T19:45:45.804Z,12.68
2022-08-18T19:48:39.461Z,12.63
2022-08-18T19:51:36.370Z,11.95
2022-08-18T19:54:40.540Z,12.15
2022-08-18T19:57:26.181Z,12.55
2022-08-18T20:00:31.191Z,12.48
2022-08-18T20:03:35.431Z,13.05
2022-08-18T20:06:27.637Z,12.85
2022-08-18T20:09:02.596Z,12.63
2022-08-18T20:11:49.797Z,12.52
2022-08-18T20:14:19.300Z,12.07
2022-08-18T20:17:23.017Z,12.18
2022-08-18T20:19:59.766Z,11.43
2022-08-18T20:22:43.893Z,12.27
2022-08-18T20:25:20.305Z,11.73
2022-08-18T20:28:13.308Z,12.00
2022-08-18T20:31:12.852Z,12.43
2022-08-18T20:34:04.404Z,12.00
2022-08-18T20:36:37.062Z,12.38
2022-08-18T20:39:34.671Z,12.80
2022-08-18T20:42:07.829Z,12.48
2022-08-18T20:44:45.623Z,12.48
2022-08-18T20:47:35.334Z,12.40
2022-08-18T20:50:40.549Z,12.02
2022-08-18T20:53:35.024Z,12.57
2022-08-18T20:56:43.018Z,12.50
2022-08-18T20:59:23.352Z,13.07
2022-08-18T21:01:59.415Z,12.90
2022-08-18T21:04:50.695Z,12.25
2022-08-18T21:07:40.317Z,12.30
2022-08-18T21:10:23.751Z,12.35
2022-08-18T21:13:04.426Z,11.85
2022-08-18T21:15:38.344Z,11.73
2022-08-18T21:18:25.489Z,11.57
2022-08-18T21:21:27.108Z,11.48
2022-08-18T21:24:00.255Z,11.10
2022-08-18T21:26:48.465Z,10.85
2022-08-18T21:29:16.887Z,10.65
2022-08-18T21:31:48.316Z,10.57
2022-08-18T21:34:34.405Z,10.45
2022-08-18T21:37:08.296Z,10.70
2022-08-18T21:39:59.918Z,11.25
2022-08-18T21:43:05.599Z,11.20
2022-08-18T21:45:59.686Z,11.07
2022-08-18T21:48:31.859Z,10.23
2022-08-18T21:51:02.658Z,10.75
2022-08-18T21:53:41.870Z,10.05
2022-08-18T21:56:29.784Z,10.30
2022-08-18T21:59:17.439Z,10.05
2022-08-18T22:01:57.284Z,10.27
2022-08-18T22:04:47.735Z,10.40
2022-08-18T22:07:35.691Z,10.50
2022-08-18T22:10:45.671Z,10.52
2022-08-18T22:13:41.621Z,10.25
2022-08-18T22:16:30.482Z,10.07
2022-08-18T22:19:19.131Z,10.45
2022-08-18T22:22:29.473Z,9.90
2022-08-18T22:25:03.127Z,10.35
2022-08-18T22:27:31.469Z,10.75
2022-08-18T22:30:04.456Z,10.35
2022-08-18T22:32:46.136Z,10.63
2022-08-18T22:35:35.572Z,10.10
2022-08-18T22:38:21.666Z,9.82
2022-08-18T22:41:26.350Z,10.32
2022-08-18T22:43:54.642Z,11.05
2022-08-18T22:46:25.426Z,10.25
2022-08-18T22:48:56.487Z,11.05
2022-08-18T22:51:27.156Z,10.88
2022-08-18T22:54:02.642Z,10.25
2022-08-18T22:56:34.303Z,10.48
2022-08-18T22:59:23.702Z,10.07
2022-08-18T23:01:58.620Z,10.70
2022-08-18T23:04:27.486Z,10.93
2022-08-18T23:06:56.576Z,10.55
2022-08-18T23:09:40.869Z,10.93
2022-08-18T23:12:14.025Z,11.55
2022-08-18T23:14:46.878Z,10.57
2022-08-18T23:17:38.652Z,10.65
2022-08-18T23:20:18.205Z,11.55
2022-08-18T23:23:01.754Z,11.38
2022-08-18T23:25:42.287Z,12.60
2022-08-18T23:28:12.282Z,12.70
2022-08-18T23:30:49.542Z,11.80
2022-08-18T23:33:21.921Z,11.52
2022-08-18T23:35:58.250Z,11.98
2022-08-18T23:38:31.712Z,11.95
2022-08-18T23:43:51.983Z,11.30
2022-08-18T23:46:32.207Z,12.13
2022-08-18T23:49:01.415Z,12.07
2022-08-18T23:51:44.521Z,12.23
2022-08-18T23:54:32.318Z,12.70
2022-08-18T23:57:00.136Z,13.27
2022-08-18T23:59:43.532Z,13.05
